TimePDT,TemperatureF,Dew PointF,Humidity,Sea Level PressureIn,VisibilityMPH,Wind Direction,Wind SpeedMPH,Gust SpeedMPH,PrecipitationIn,Events,Conditions,WindDirDegrees,DateUTC
12:00 AM,53.6,48.2,82,30.05,9.0,Calm,Calm,-,N/A,,Overcast,0,2013-05-18 07:00:00
12:53 AM,54.0,48.9,83,30.06,8.0,SSE,4.6,-,0.00,Rain,Light Rain,150,2013-05-18 07:53:00
1:39 AM,53.6,48.2,82,30.06,5.0,South,5.8,-,0.00,Rain,Light Rain,190,2013-05-18 08:39:00
1:51 AM,53.6,48.2,82,30.05,4.0,SSW,3.5,-,0.01,Rain,Light Rain,200,2013-05-18 08:51:00
1:53 AM,53.1,48.0,83,30.06,5.0,Calm,Calm,-,0.01,Rain,Light Rain,0,2013-05-18 08:53:00
2:03 AM,53.6,48.2,82,30.06,7.0,West,4.6,-,0.00,,Overcast,260,2013-05-18 09:03:00
2:32 AM,51.8,48.2,88,30.06,4.0,SSW,6.9,-,0.00,Rain,Light Rain,210,2013-05-18 09:32:00
2:53 AM,53.1,48.0,83,30.06,8.0,SSW,3.5,-,0.00,,Overcast,210,2013-05-18 09:53:00
3:15 AM,51.8,48.2,88,30.06,7.0,Calm,Calm,-,N/A,,Overcast,0,2013-05-18 10:15:00
3:26 AM,51.8,48.2,88,30.06,3.0,Calm,Calm,-,0.01,Rain,Light Rain,0,2013-05-18 10:26:00
3:53 AM,52.0,48.0,86,30.06,5.0,Calm,Calm,-,0.02,Rain,Light Rain,0,2013-05-18 10:53:00
4:11 AM,51.8,48.2,88,30.06,7.0,Calm,Calm,-,0.00,Rain,Light Rain,0,2013-05-18 11:11:00
4:53 AM,52.0,48.0,86,30.06,9.0,ESE,3.5,-,0.01,Rain,Light Rain,120,2013-05-18 11:53:00
5:32 AM,51.8,48.2,88,30.06,9.0,Calm,Calm,-,0.00,,Overcast,0,2013-05-18 12:32:00
5:53 AM,52.0,46.9,83,30.07,9.0,ENE,3.5,-,0.00,,Overcast,70,2013-05-18 12:53:00
6:37 AM,51.8,48.2,88,30.08,1.8,Calm,Calm,-,0.00,Rain,Light Rain,0,2013-05-18 13:37:00
6:41 AM,51.8,48.2,88,30.08,1.0,Calm,Calm,-,0.01,Rain,Rain,0,2013-05-18 13:41:00
6:53 AM,51.1,48.0,89,30.08,1.2,Variable,3.5,-,0.04,Rain,Rain,0,2013-05-18 13:53:00
7:01 AM,51.8,48.2,88,30.08,1.8,Calm,Calm,-,0.01,Rain,Light Rain,0,2013-05-18 14:01:00
7:03 AM,51.8,48.2,88,30.08,2.5,Calm,Calm,-,0.01,Rain,Light Rain,0,2013-05-18 14:03:00
7:11 AM,51.8,48.2,88,30.08,5.0,Calm,Calm,-,0.02,Rain,Light Rain,0,2013-05-18 14:11:00
7:19 AM,51.8,48.2,88,30.09,8.0,Calm,Calm,-,0.02,Rain,Light Rain,0,2013-05-18 14:19:00
7:53 AM,53.1,48.0,83,30.09,6.0,East,3.5,-,0.02,Rain,Light Rain,100,2013-05-18 14:53:00
8:02 AM,53.6,48.2,82,30.09,7.0,East,3.5,-,0.00,,Overcast,100,2013-05-18 15:02:00
8:11 AM,53.6,48.2,82,30.09,7.0,ESE,3.5,-,0.00,Rain,Light Rain,110,2013-05-18 15:11:00
8:23 AM,53.6,48.2,82,30.10,2.5,SE,3.5,-,0.00,Rain,Light Rain,140,2013-05-18 15:23:00
8:29 AM,53.6,50.0,88,30.10,1.8,Calm,Calm,-,0.02,Rain,Light Rain,0,2013-05-18 15:29:00
8:31 AM,53.6,50.0,88,30.10,2.0,Variable,3.5,-,0.02,Rain,Light Rain,0,2013-05-18 15:31:00
8:39 AM,53.6,48.2,82,30.10,4.0,Calm,Calm,-,0.02,Rain,Light Rain,0,2013-05-18 15:39:00
8:53 AM,53.1,48.9,86,30.10,5.0,Calm,Calm,-,0.03,Rain,Light Rain,0,2013-05-18 15:53:00
9:02 AM,53.6,50.0,88,30.10,1.8,Calm,Calm,-,0.00,Rain,Light Rain,0,2013-05-18 16:02:00
9:12 AM,53.6,48.2,82,30.11,2.0,Calm,Calm,-,0.01,Rain,Light Rain,0,2013-05-18 16:12:00
9:21 AM,53.6,50.0,88,30.11,1.8,Calm,Calm,-,0.03,Rain,Rain,0,2013-05-18 16:21:00
9:26 AM,53.6,50.0,88,30.11,3.0,Calm,Calm,-,0.03,Rain,Light Rain,0,2013-05-18 16:26:00
9:53 AM,54.0,48.9,83,30.12,7.0,SSW,8.1,-,0.04,Rain,Light Rain,210,2013-05-18 16:53:00
10:08 AM,53.6,48.2,82,30.12,5.0,SSW,9.2,-,0.00,Rain,Light Rain,200,2013-05-18 17:08:00
10:23 AM,55.4,50.0,82,30.12,5.0,South,6.9,-,0.00,Rain,Light Rain,190,2013-05-18 17:23:00
10:53 AM,55.9,48.9,77,30.13,6.0,South,6.9,-,0.00,,Haze,170,2013-05-18 17:53:00
11:34 AM,55.4,48.2,77,30.14,8.0,SSE,5.8,-,N/A,,Overcast,150,2013-05-18 18:34:00
11:43 AM,55.4,48.2,77,30.14,8.0,Variable,5.8,-,N/A,,Overcast,0,2013-05-18 18:43:00
11:53 AM,57.2,48.2,72,30.15,8.0,South,8.1,-,N/A,,Overcast,190,2013-05-18 18:53:00
12:53 PM,57.0,48.0,72,30.17,8.0,South,6.9,-,N/A,,Overcast,190,2013-05-18 19:53:00
1:22 PM,57.2,48.2,72,30.18,7.0,SSW,6.9,-,0.00,Rain,Light Rain,200,2013-05-18 20:22:00
1:53 PM,57.9,50.0,75,30.18,6.0,SW,8.1,-,0.00,Rain,Light Rain,220,2013-05-18 20:53:00
2:03 PM,57.2,48.2,72,30.18,7.0,SSW,6.9,-,0.00,Rain,Light Rain,200,2013-05-18 21:03:00
2:53 PM,59.0,50.0,72,30.19,8.0,SW,9.2,-,0.00,,Overcast,230,2013-05-18 21:53:00
3:53 PM,59.0,48.9,69,30.21,9.0,SSW,10.4,-,N/A,,Overcast,210,2013-05-18 22:53:00
4:14 PM,60.8,50.0,68,30.21,9.0,SSW,8.1,-,N/A,,Overcast,210,2013-05-18 23:14:00
4:53 PM,59.0,48.9,69,30.22,9.0,SSW,8.1,-,N/A,,Mostly Cloudy,210,2013-05-18 23:53:00
5:07 PM,57.2,48.2,72,30.22,9.0,SSW,5.8,-,N/A,,Mostly Cloudy,200,2013-05-19 00:07:00
5:53 PM,57.0,48.9,74,30.23,9.0,WSW,9.2,-,N/A,,Overcast,240,2013-05-19 00:53:00
6:29 PM,55.4,48.2,77,30.23,9.0,SW,8.1,-,N/A,,Overcast,230,2013-05-19 01:29:00
6:53 PM,55.9,48.9,77,30.25,9.0,WSW,10.4,-,N/A,,Overcast,250,2013-05-19 01:53:00
6:56 PM,55.4,48.2,77,30.24,5.0,West,10.4,-,N/A,,Haze,270,2013-05-19 01:56:00
7:03 PM,53.6,50.0,88,30.24,2.0,WSW,8.1,-,N/A,,Overcast,250,2013-05-19 02:03:00
7:16 PM,55.4,50.0,82,30.24,4.0,WSW,4.6,-,N/A,,Haze,250,2013-05-19 02:16:00
7:41 PM,55.4,48.2,77,30.25,8.0,Calm,Calm,-,N/A,,Overcast,0,2013-05-19 02:41:00
7:53 PM,55.0,48.9,80,30.26,8.0,WNW,6.9,-,N/A,,Overcast,290,2013-05-19 02:53:00
8:14 PM,53.6,48.2,82,30.26,7.0,WNW,6.9,-,N/A,,Overcast,300,2013-05-19 03:14:00
8:28 PM,53.6,46.4,77,30.27,7.0,NW,6.9,-,N/A,,Overcast,310,2013-05-19 03:28:00
8:53 PM,54.0,48.0,80,30.28,7.0,NW,4.6,-,N/A,,Overcast,310,2013-05-19 03:53:00
9:01 PM,53.6,48.2,82,30.28,7.0,West,5.8,-,N/A,,Overcast,280,2013-05-19 04:01:00
9:53 PM,54.0,48.0,80,30.30,8.0,Calm,Calm,-,N/A,,Overcast,0,2013-05-19 04:53:00
10:53 PM,53.1,48.0,83,30.31,6.0,West,4.6,-,N/A,,Haze,280,2013-05-19 05:53:00
11:32 PM,51.8,46.4,82,30.32,7.0,NW,5.8,-,N/A,,Overcast,310,2013-05-19 06:32:00
11:53 PM,53.1,45.0,74,30.32,8.0,NW,9.2,-,N/A,,Overcast,310,2013-05-19 06:53:00